Decoded Metar for CWEU (EUREKA in NU, CANADA) (IATA:WEU) | Meteo·Mobile Aviation Weather
aviador You're here:

CWEU Decoded Metar

EUREKA in NU, CANADA
Report Time2018-08-21 05:00:00
UTC Time2018-08-21 05:38:53
Flight Rules vfr VFR
Wind280° at 03 kt
W.Rank280° ranks 8
Current wind is below 280° avg. (7.0)
Visibility9999 m
Phenomena:N/A
Clouds:Few 150 Hf
Few 250 Hf
Expected CloudBase > 2,000 ft AGL from Temp-Dew spread
CeilingNone
Temp06°C (ISA -9)
Dew Point01°C (71% RH)
AAT3.1°C
QNH1006 hPa
Density Alt-715 ft
Elevation33 ft
Report Wrong Elevation
Raw Report
CWEU 210500Z 28003KT 260V020 15SM FEW150 FEW250 06/01 A2972 RMK
AC1CI1 AC TR CI TR SLP067=

Extra information for CWEU:More info

Metar Taf Metar & Taf Last 4 Metars F.Rules Stats Wind Profile Meteogram Temp Stats Airport Information Weather charts Add Link Nearby VenuesMetar ALERT Operation Metar Decoded Social comments